createdAt,value
2022-12-20T00:04:05.804Z,19.45
2022-12-20T00:09:05.386Z,20.60
2022-12-20T00:14:05.041Z,18.50
2022-12-20T00:19:04.742Z,18.88
2022-12-20T00:24:03.217Z,18.27
2022-12-20T00:29:01.766Z,18.88
2022-12-20T00:34:02.283Z,19.45
2022-12-20T00:39:01.415Z,21.55
2022-12-20T00:43:59.631Z,18.88
2022-12-20T00:48:58.019Z,21.95
2022-12-20T00:53:57.985Z,18.88
2022-12-20T00:58:59.086Z,17.90
2022-12-20T01:03:57.318Z,19.17
2022-12-20T01:08:56.086Z,18.40
2022-12-20T01:13:57.125Z,19.77
2022-12-20T01:18:55.542Z,20.77
2022-12-20T01:23:53.981Z,18.70
2022-12-20T01:28:53.810Z,17.10
2022-12-20T01:33:53.572Z,17.38
2022-12-20T01:38:52.058Z,18.35
2022-12-20T01:43:51.607Z,20.73
2022-12-20T01:48:51.135Z,16.48
2022-12-20T01:53:52.943Z,19.92
2022-12-20T01:58:52.760Z,18.77
2022-12-20T02:03:52.493Z,18.20
2022-12-20T02:08:52.630Z,19.77
2022-12-20T02:13:57.595Z,16.35
2022-12-20T02:19:02.256Z,17.63
2022-12-20T02:24:21.045Z,19.80
2022-12-20T02:29:25.942Z,19.30
2022-12-20T02:34:29.405Z,17.05
2022-12-20T02:39:29.347Z,17.42
2022-12-20T02:44:45.969Z,18.92
2022-12-20T02:49:48.917Z,20.70
2022-12-20T02:54:47.173Z,17.92
2022-12-20T02:59:50.222Z,18.83
2022-12-20T03:04:49.965Z,18.95
2022-12-20T03:09:48.230Z,18.17
2022-12-20T03:14:47.118Z,21.30
2022-12-20T03:19:46.613Z,20.50
2022-12-20T03:24:46.185Z,20.65
2022-12-20T03:29:46.064Z,21.45
2022-12-20T03:34:44.744Z,22.42
2022-12-20T03:39:43.929Z,21.77
2022-12-20T03:44:46.110Z,19.15
2022-12-20T03:49:44.852Z,18.23
2022-12-20T03:54:43.178Z,19.00
2022-12-20T03:59:46.830Z,19.55
2022-12-20T04:04:47.204Z,21.60
2022-12-20T04:09:46.376Z,20.83
2022-12-20T04:14:47.949Z,18.80
2022-12-20T04:19:46.456Z,21.85
2022-12-20T04:24:45.311Z,23.50
2022-12-20T04:30:05.413Z,23.33
2022-12-20T04:35:06.986Z,24.67
2022-12-20T04:40:11.233Z,20.27
2022-12-20T04:45:19.292Z,19.60
2022-12-20T04:50:19.232Z,27.35
2022-12-20T04:55:18.319Z,29.95
2022-12-20T05:00:17.353Z,19.15
2022-12-20T05:05:22.068Z,55.70
2022-12-20T05:10:24.090Z,22.83
2022-12-20T05:15:24.109Z,20.15
2022-12-20T05:20:24.941Z,18.58
2022-12-20T05:25:43.595Z,19.67
2022-12-20T05:30:41.967Z,21.45
2022-12-20T05:35:42.264Z,17.85
2022-12-20T05:40:44.433Z,18.65
2022-12-20T05:45:46.382Z,25.67
2022-12-20T05:50:48.035Z,24.15
2022-12-20T05:56:12.414Z,25.60
2022-12-20T06:01:11.877Z,22.70
2022-12-20T06:06:15.052Z,19.77
2022-12-20T06:16:25.955Z,24.35
2022-12-20T06:21:29.180Z,20.77
2022-12-20T06:26:36.381Z,25.85
2022-12-20T06:31:37.248Z,26.85
2022-12-20T06:36:38.329Z,27.35
2022-12-20T06:41:40.921Z,27.60
2022-12-20T06:46:40.634Z,25.92
2022-12-20T06:51:42.433Z,26.45
2022-12-20T06:56:42.359Z,27.83
2022-12-20T07:01:43.556Z,28.00
2022-12-20T07:06:43.279Z,26.50
2022-12-20T07:11:44.440Z,28.23
2022-12-20T07:16:43.690Z,21.50
2022-12-20T07:21:43.368Z,23.23
2022-12-20T07:26:43.389Z,22.52
2022-12-20T07:31:44.268Z,23.27
2022-12-20T07:36:46.469Z,28.25
2022-12-20T07:41:45.116Z,37.53
2022-12-20T07:46:48.881Z,27.60
2022-12-20T07:51:49.818Z,23.95
2022-12-20T07:56:57.036Z,23.35
2022-12-20T08:01:59.442Z,24.33
2022-12-20T08:07:03.939Z,23.48
2022-12-20T08:12:02.399Z,24.55
2022-12-20T08:17:00.731Z,22.90
2022-12-20T08:22:00.866Z,26.55
2022-12-20T08:27:00.466Z,26.80
2022-12-20T08:31:58.732Z,24.63
2022-12-20T08:36:57.110Z,27.52
2022-12-20T08:41:56.594Z,31.63
2022-12-20T08:46:58.392Z,32.85
2022-12-20T08:51:59.420Z,56.17
2022-12-20T08:56:57.635Z,32.60
2022-12-20T09:01:57.456Z,29.00
2022-12-20T09:06:57.254Z,30.27
2022-12-20T09:11:55.763Z,39.67
2022-12-20T09:16:56.991Z,27.63
2022-12-20T09:21:56.664Z,29.80
2022-12-20T09:26:54.889Z,25.55
2022-12-20T09:31:53.195Z,27.48
2022-12-20T09:42:26.188Z,22.05
2022-12-20T09:47:27.972Z,26.40
2022-12-20T09:52:37.986Z,24.25
2022-12-20T09:57:47.878Z,25.35
2022-12-20T10:03:09.370Z,25.58
2022-12-20T10:08:12.318Z,24.33
2022-12-20T10:13:17.080Z,24.52
2022-12-20T10:18:24.538Z,22.40
2022-12-20T10:23:32.805Z,27.33
2022-12-20T10:28:36.991Z,30.50
2022-12-20T10:33:35.370Z,26.92
2022-12-20T10:38:44.634Z,28.10
2022-12-20T10:43:48.068Z,28.85
2022-12-20T10:48:46.973Z,27.08
2022-12-20T10:53:54.750Z,28.17
2022-12-20T10:59:00.487Z,24.05
2022-12-20T11:04:05.473Z,27.30
2022-12-20T11:09:24.773Z,27.83
2022-12-20T11:14:24.463Z,30.17
2022-12-20T11:19:31.907Z,28.83
2022-12-20T11:24:34.384Z,36.67
2022-12-20T11:29:50.639Z,27.17
2022-12-20T11:34:55.668Z,29.08
2022-12-20T11:40:05.530Z,28.08
2022-12-20T11:45:13.829Z,30.67
2022-12-20T11:50:21.638Z,53.25
2022-12-20T11:55:22.765Z,28.23
2022-12-20T12:00:24.398Z,29.10
2022-12-20T12:05:24.973Z,38.83
2022-12-20T12:10:27.814Z,35.28
2022-12-20T12:15:31.948Z,54.88
2022-12-20T12:20:34.485Z,29.85
2022-12-20T12:25:32.790Z,31.20
2022-12-20T12:30:37.713Z,34.70
2022-12-20T12:35:46.213Z,33.50
2022-12-20T12:40:57.333Z,30.83
2022-12-20T12:45:59.487Z,33.13
2022-12-20T12:50:58.824Z,35.95
2022-12-20T12:56:12.720Z,37.38
2022-12-20T13:01:13.319Z,73.10
2022-12-20T13:06:30.081Z,42.58
2022-12-20T13:11:30.680Z,42.35
2022-12-20T13:17:09.447Z,42.45
2022-12-20T13:21:56.868Z,42.30
2022-12-20T13:31:54.919Z,37.80
2022-12-20T13:36:59.498Z,40.75
2022-12-20T13:42:08.430Z,48.20
2022-12-20T13:47:24.805Z,38.08
2022-12-20T13:52:25.331Z,55.13
2022-12-20T13:57:27.284Z,36.45
2022-12-20T14:02:29.229Z,44.45
2022-12-20T14:07:28.660Z,46.65
2022-12-20T14:12:32.918Z,41.10
2022-12-20T14:17:39.839Z,86.43
2022-12-20T14:22:44.142Z,39.72
2022-12-20T14:27:42.913Z,41.50
2022-12-20T14:32:49.964Z,56.63
2022-12-20T14:37:53.967Z,52.55
2022-12-20T14:42:52.410Z,75.05
2022-12-20T14:47:55.381Z,62.28
2022-12-20T14:52:53.704Z,88.45
2022-12-20T14:57:52.697Z,52.63
2022-12-20T15:02:53.707Z,51.05
2022-12-20T15:07:52.003Z,50.78
2022-12-20T15:12:50.660Z,49.40
2022-12-20T15:17:48.908Z,61.10
2022-12-20T15:22:48.601Z,59.72
2022-12-20T15:27:46.813Z,67.88
2022-12-20T15:32:55.204Z,64.53
2022-12-20T15:37:55.386Z,43.30
2022-12-20T15:42:53.548Z,90.40
2022-12-20T15:47:51.867Z,45.45
2022-12-20T15:52:50.228Z,67.93
2022-12-20T15:57:49.927Z,52.08
2022-12-20T16:02:51.094Z,41.50
2022-12-20T16:07:49.554Z,39.60
2022-12-20T16:12:47.761Z,35.63
2022-12-20T16:17:47.414Z,42.83
2022-12-20T16:22:46.017Z,63.97
2022-12-20T16:27:44.181Z,52.72
2022-12-20T16:32:42.522Z,47.97
2022-12-20T16:37:42.179Z,50.65
2022-12-20T16:42:40.478Z,45.33
2022-12-20T16:47:39.662Z,48.83
2022-12-20T16:52:38.001Z,42.65
2022-12-20T16:57:37.883Z,49.33
2022-12-20T17:02:36.283Z,46.90
2022-12-20T17:07:41.124Z,52.80
2022-12-20T17:12:41.276Z,52.60
2022-12-20T17:17:39.667Z,59.95
2022-12-20T17:27:55.664Z,64.72
2022-12-20T17:32:54.521Z,62.22
2022-12-20T17:37:55.823Z,53.22
2022-12-20T17:42:56.009Z,46.83
2022-12-20T17:47:54.712Z,40.70
2022-12-20T17:52:54.614Z,40.53
2022-12-20T17:57:53.872Z,42.40
2022-12-20T18:02:53.935Z,42.90
2022-12-20T18:07:53.442Z,52.10
2022-12-20T18:12:51.817Z,38.30
2022-12-20T18:17:50.032Z,44.90
2022-12-20T18:22:49.730Z,43.50
2022-12-20T18:27:48.114Z,41.58
2022-12-20T18:32:46.413Z,42.42
2022-12-20T18:37:44.561Z,41.17
2022-12-20T18:42:45.058Z,41.60
2022-12-20T18:47:43.429Z,46.92
2022-12-20T18:52:43.250Z,69.20
2022-12-20T18:57:47.209Z,49.47
2022-12-20T19:02:45.578Z,49.92
2022-12-20T19:07:43.905Z,45.20
2022-12-20T19:12:42.177Z,43.15
2022-12-20T19:17:42.125Z,43.92
2022-12-20T19:22:41.993Z,37.72
2022-12-20T19:27:40.637Z,40.83
2022-12-20T19:32:39.093Z,37.80
2022-12-20T19:37:39.487Z,33.67
2022-12-20T19:42:38.100Z,35.67
2022-12-20T19:47:36.359Z,43.47
2022-12-20T19:52:34.531Z,37.20
2022-12-20T19:57:34.913Z,38.53
2022-12-20T20:02:33.303Z,49.58
2022-12-20T20:07:31.542Z,43.45
2022-12-20T20:12:29.735Z,38.92
2022-12-20T20:17:29.474Z,38.38
2022-12-20T20:22:27.705Z,37.35
2022-12-20T20:27:25.958Z,57.38
2022-12-20T20:32:24.111Z,71.07
2022-12-20T20:37:23.784Z,78.53
2022-12-20T20:42:23.639Z,51.67
2022-12-20T20:47:22.138Z,122.55
2022-12-20T20:52:20.863Z,81.57
2022-12-20T20:57:20.422Z,78.97
2022-12-20T21:02:21.048Z,68.30
2022-12-20T21:07:19.581Z,75.53
2022-12-20T21:12:18.000Z,90.63
2022-12-20T21:17:17.997Z,82.30
2022-12-20T21:22:16.150Z,55.25
2022-12-20T21:27:14.329Z,105.00
2022-12-20T21:32:12.498Z,50.53
2022-12-20T21:37:12.071Z,50.45
2022-12-20T21:42:10.226Z,86.88
2022-12-20T21:47:08.663Z,39.35
2022-12-20T21:52:06.939Z,63.45
2022-12-20T21:57:06.532Z,55.05
2022-12-20T22:02:05.028Z,50.90
2022-12-20T22:07:03.391Z,44.55
2022-12-20T22:12:01.560Z,42.13
2022-12-20T22:17:01.122Z,39.28
2022-12-20T22:21:59.277Z,39.58
2022-12-20T22:26:57.470Z,37.05
2022-12-20T22:31:55.669Z,46.70
2022-12-20T22:36:55.277Z,31.95
2022-12-20T22:41:53.424Z,33.47
2022-12-20T22:46:51.605Z,35.72
2022-12-20T22:52:05.868Z,43.80
2022-12-20T22:57:06.151Z,34.13
2022-12-20T23:02:05.436Z,34.88
2022-12-20T23:07:03.814Z,24.33
2022-12-20T23:12:19.425Z,25.77
2022-12-20T23:17:18.967Z,20.52
2022-12-20T23:22:34.650Z,20.88
2022-12-20T23:32:32.155Z,25.13
2022-12-20T23:37:30.347Z,27.70
2022-12-20T23:42:29.237Z,26.17
2022-12-20T23:47:27.376Z,26.35
2022-12-20T23:52:26.949Z,27.67
2022-12-20T23:57:25.124Z,25.73
